logo
Search for airport 
image banner adimage banner adimage banner ad
image banner ad

SQVT - La Venturosa

Located in Villanueva, Colombia

ICAO - , IATA -

Data provided by Airmate  

General information

Coordinates: N5°14'20" W71°18'13"
Elevation is 462 feet MSL.
Magnetic variation is -10° East
View others Airports in Casanare

Operational data

Special qualification required
Current time UTC:
Current local time:
Weather at : - ( 0 km )
METAR: KMCW 141725Z AUTO 18006KT 10SM BKN018 28/24 A2990 RMK AO2 T02830239
View NOTAMs / SUP AIP / TFR affecting this airport [VIEW]
Communications frequencies: [VIEW]

Runways:

RWY identifierQFULength (ft)Width (ft)SurfaceLDA (ft)
02184970DIRT
20189°184970DIRT

Airport contact information

Address: Villanueva Colombia

Satellite view of SQVT